Time;durP1;ratioP1;P1;durP2;ratioP2;P2;SDS_P1;SDS_P2;PMS_P1;PMS_P2;Temp;Humidity;BMP_temperature;BMP_pressure;BME280_temperature;BME280_humidity;BME280_pressure;Samples;Min_cycle;Max_cycle;Signal;HPM_P1;HPM_P2
2022/03/18 00:00:00;;;;;;;;;;;8.30;99.90;;;;;;5082668;28;20663;-60
2022/03/18 00:02:27;;;;;;;;;;;8.30;99.90;;;;;;5080139;28;19966;-59
2022/03/18 00:04:54;;;;;;;;;;;8.30;99.90;;;;;;5075761;28;19969;-59
2022/03/18 00:07:21;;;;;;;;;;;8.30;99.90;;;;;;5077510;28;19959;-59
2022/03/18 00:09:48;;;;;;;;;;;8.30;99.90;;;;;;5084960;28;19931;-59
2022/03/18 00:12:15;;;;;;;;;;;8.30;99.90;;;;;;5093097;28;19947;-58
2022/03/18 00:14:42;;;;;;;;;;;8.30;99.90;;;;;;5090607;28;19926;-59
2022/03/18 00:17:10;;;;;;;;;;;8.30;99.90;;;;;;5085251;28;20336;-59
2022/03/18 00:19:38;;;;;;;;;;;8.30;99.90;;;;;;5092654;28;19927;-59
2022/03/18 00:22:06;;;;;;;;;;;8.30;99.90;;;;;;5084821;28;19919;-60
2022/03/18 00:24:33;;;;;;;;;;;8.30;99.90;;;;;;5093328;28;19977;-60
2022/03/18 00:27:00;;;;;;;;;;;8.30;99.90;;;;;;5093620;28;19926;-59
2022/03/18 00:29:27;;;;;;;;;;;8.20;99.90;;;;;;5085965;28;19943;-59
2022/03/18 00:31:55;;;;;;;;;;;8.20;99.90;;;;;;5091208;28;19924;-59
2022/03/18 00:34:22;;;;;;;;;;;8.20;99.90;;;;;;5093287;28;20010;-59
2022/03/18 00:36:49;;;;;;;;;;;8.20;99.90;;;;;;5092545;28;19920;-59
2022/03/18 00:39:16;;;;;;;;;;;8.20;99.90;;;;;;5073015;28;19954;-60
2022/03/18 00:41:43;;;;;;;;;;;8.20;99.90;;;;;;5089508;28;19920;-60
2022/03/18 00:44:10;;;;;;;;;;;8.20;99.90;;;;;;5093016;28;19927;-59
2022/03/18 00:46:37;;;;;;;;;;;8.10;99.90;;;;;;5081222;28;19943;-59
2022/03/18 00:52:03;;;;;;;;;;;8.20;99.90;;;;;;5084501;28;20007;-59
2022/03/18 00:54:32;;;;;;;;;;;8.20;99.90;;;;;;5092190;28;19924;-59
2022/03/18 00:56:59;;;;;;;;;;;8.20;99.90;;;;;;5083042;28;19920;-61
2022/03/18 00:59:26;;;;;;;;;;;8.20;99.90;;;;;;5091262;28;19963;-61
2022/03/18 01:01:54;;;;;;;;;;;8.10;99.90;;;;;;5092959;28;20011;-60
2022/03/18 01:04:21;;;;;;;;;;;7.90;99.90;;;;;;5091978;28;19989;-61
2022/03/18 01:06:49;;;;;;;;;;;7.90;99.90;;;;;;5084231;28;19924;-61
2022/03/18 01:09:17;;;;;;;;;;;7.90;99.90;;;;;;5092293;28;19924;-61
2022/03/18 01:11:43;;;;;;;;;;;7.90;99.90;;;;;;5091964;28;19928;-61
2022/03/18 01:14:10;;;;;;;;;;;7.90;99.90;;;;;;5080157;28;19927;-61
2022/03/18 01:16:37;;;;;;;;;;;7.90;99.90;;;;;;5088076;28;19920;-61
2022/03/18 01:19:04;;;;;;;;;;;7.90;99.90;;;;;;5092337;28;19970;-61
2022/03/18 01:21:31;;;;;;;;;;;7.80;99.90;;;;;;5091817;28;19924;-61
2022/03/18 01:23:58;;;;;;;;;;;7.70;99.90;;;;;;5083583;28;19934;-60
2022/03/18 01:26:25;;;;;;;;;;;7.70;99.90;;;;;;5091965;28;19920;-61
2022/03/18 01:28:52;;;;;;;;;;;7.60;99.90;;;;;;5091953;28;20298;-60
2022/03/18 01:31:19;;;;;;;;;;;7.50;99.90;;;;;;5092283;28;20402;-61
2022/03/18 01:33:46;;;;;;;;;;;7.40;99.90;;;;;;5083630;28;19974;-60
2022/03/18 01:36:13;;;;;;;;;;;7.30;99.90;;;;;;5092190;28;19920;-61
2022/03/18 01:38:40;;;;;;;;;;;7.30;99.90;;;;;;5092339;28;19920;-61
2022/03/18 01:41:07;;;;;;;;;;;7.30;99.90;;;;;;5088291;28;19969;-61
2022/03/18 01:43:38;;;;;;;;;;;7.40;99.90;;;;;;5087412;28;19946;-61
2022/03/18 01:46:05;;;;;;;;;;;7.40;99.90;;;;;;5092259;28;20014;-61
2022/03/18 01:48:32;;;;;;;;;;;7.40;99.90;;;;;;5091573;28;19920;-61
2022/03/18 01:50:58;;;;;;;;;;;7.40;99.90;;;;;;5083300;28;19924;-60
2022/03/18 01:53:25;;;;;;;;;;;7.40;99.90;;;;;;5091723;28;20425;-60
2022/03/18 01:55:54;;;;;;;;;;;7.40;99.90;;;;;;5092258;28;20327;-61
2022/03/18 01:58:22;;;;;;;;;;;7.40;99.90;;;;;;5091368;28;19924;-61
2022/03/18 02:00:48;;;;;;;;;;;7.40;99.90;;;;;;5083436;28;20341;-60
2022/03/18 02:03:16;;;;;;;;;;;7.40;99.90;;;;;;5091916;28;19923;-61
2022/03/18 02:05:43;;;;;;;;;;;7.20;99.90;;;;;;5091569;28;20489;-61
2022/03/18 02:08:10;;;;;;;;;;;7.20;99.90;;;;;;5079873;28;20045;-61
2022/03/18 02:10:38;;;;;;;;;;;7.10;99.90;;;;;;5071433;28;20019;-61
2022/03/18 02:13:04;;;;;;;;;;;7.00;99.90;;;;;;5071525;28;19924;-61
2022/03/18 02:15:31;;;;;;;;;;;7.00;99.90;;;;;;5078544;28;19920;-61
2022/03/18 02:17:58;;;;;;;;;;;7.10;99.90;;;;;;5083262;28;19924;-61
2022/03/18 02:20:25;;;;;;;;;;;7.00;99.90;;;;;;5091547;28;19959;-61
2022/03/18 02:22:52;;;;;;;;;;;7.00;99.90;;;;;;5091534;28;19920;-61
2022/03/18 02:25:19;;;;;;;;;;;7.00;99.90;;;;;;5086170;28;19943;-61
2022/03/18 02:27:55;;;;;;;;;;;7.00;99.90;;;;;;5088392;28;19924;-61
2022/03/18 02:30:22;;;;;;;;;;;7.00;99.90;;;;;;5091541;28;20352;-61
2022/03/18 02:32:49;;;;;;;;;;;7.00;99.90;;;;;;5090956;28;19959;-61
2022/03/18 02:35:16;;;;;;;;;;;7.00;99.90;;;;;;5086651;28;20329;-61
2022/03/18 02:37:43;;;;;;;;;;;7.00;99.90;;;;;;5088916;28;20437;-60
2022/03/18 02:40:10;;;;;;;;;;;7.10;99.90;;;;;;5095224;28;19920;-61
2022/03/18 02:42:37;;;;;;;;;;;7.20;99.90;;;;;;5094876;28;20342;-61
2022/03/18 02:45:04;;;;;;;;;;;7.20;99.90;;;;;;5087055;28;20014;-61
2022/03/18 02:47:31;;;;;;;;;;;7.20;99.90;;;;;;5095390;28;20330;-61
2022/03/18 02:49:58;;;;;;;;;;;7.20;99.90;;;;;;5094988;28;20581;-61
2022/03/18 02:52:25;;;;;;;;;;;7.20;99.90;;;;;;5089100;28;19952;-60
2022/03/18 02:54:52;;;;;;;;;;;7.20;99.90;;;;;;5092579;28;19974;-61
2022/03/18 02:57:19;;;;;;;;;;;7.20;99.90;;;;;;5095361;28;19927;-61
2022/03/18 02:59:46;;;;;;;;;;;7.10;99.90;;;;;;5088636;28;19974;-61
2022/03/18 03:02:14;;;;;;;;;;;7.00;99.90;;;;;;5086722;28;19924;-60
2022/03/18 03:07:59;;;;;;;;;;;6.90;99.90;;;;;;5094845;28;20014;-61
2022/03/18 03:10:13;;;;;;;;;;;6.80;99.90;;;;;;5086910;28;20376;-61
2022/03/18 03:12:40;;;;;;;;;;;6.80;99.90;;;;;;5094906;28;19924;-61
2022/03/18 03:15:08;;;;;;;;;;;6.80;99.90;;;;;;5094865;28;19924;-61
2022/03/18 03:17:34;;;;;;;;;;;6.80;99.90;;;;;;5086891;28;19920;-61
2022/03/18 03:20:01;;;;;;;;;;;6.80;99.90;;;;;;5093433;28;19924;-61
2022/03/18 03:22:29;;;;;;;;;;;6.70;99.90;;;;;;5094702;28;19927;-61
2022/03/18 03:24:57;;;;;;;;;;;6.70;99.90;;;;;;5092985;28;19974;-61
2022/03/18 03:27:30;;;;;;;;;;;6.70;99.90;;;;;;5086026;28;20392;-61
2022/03/18 03:30:05;;;;;;;;;;;6.60;99.90;;;;;;5094647;28;19923;-61
2022/03/18 03:32:32;;;;;;;;;;;6.60;99.90;;;;;;5094280;28;19920;-61
2022/03/18 03:34:59;;;;;;;;;;;6.70;99.90;;;;;;5091894;28;19920;-60
2022/03/18 03:37:27;;;;;;;;;;;6.70;99.90;;;;;;5088314;28;19920;-61
2022/03/18 03:39:54;;;;;;;;;;;6.70;99.90;;;;;;5093977;28;20055;-61
2022/03/18 03:42:21;;;;;;;;;;;6.80;99.90;;;;;;5094421;28;19927;-61
2022/03/18 03:44:48;;;;;;;;;;;6.70;99.90;;;;;;5093191;28;19920;-61
2022/03/18 03:47:15;;;;;;;;;;;6.70;99.90;;;;;;5086579;28;19950;-61
2022/03/18 03:49:42;;;;;;;;;;;6.70;99.90;;;;;;5093719;28;20002;-61
2022/03/18 03:52:08;;;;;;;;;;;6.60;99.90;;;;;;5094184;28;19927;-61
2022/03/18 03:54:40;;;;;;;;;;;6.50;99.90;;;;;;5086254;28;20438;-61
2022/03/18 03:57:07;;;;;;;;;;;6.50;99.90;;;;;;5093658;28;20296;-61
2022/03/18 03:59:34;;;;;;;;;;;6.40;99.90;;;;;;5093798;28;19920;-61
2022/03/18 04:02:02;;;;;;;;;;;6.40;99.90;;;;;;5091093;28;19920;-60
2022/03/18 04:04:30;;;;;;;;;;;6.30;99.90;;;;;;5088335;28;19920;-60
2022/03/18 04:06:57;;;;;;;;;;;6.20;99.90;;;;;;5093827;28;19931;-60
2022/03/18 04:09:24;;;;;;;;;;;6.10;99.90;;;;;;5090409;28;19927;-60
2022/03/18 04:11:50;;;;;;;;;;;6.00;99.90;;;;;;5082846;28;19920;-60
2022/03/18 04:14:17;;;;;;;;;;;6.10;99.90;;;;;;5093647;28;19969;-60
2022/03/18 04:16:44;;;;;;;;;;;6.10;99.90;;;;;;5093646;28;19920;-61
2022/03/18 04:19:11;;;;;;;;;;;6.00;99.90;;;;;;5092687;28;19920;-60
2022/03/18 04:21:38;;;;;;;;;;;6.00;99.90;;;;;;5085038;28;19920;-60
2022/03/18 04:24:05;;;;;;;;;;;5.90;99.90;;;;;;5093479;28;19973;-60
2022/03/18 04:26:32;;;;;;;;;;;5.90;99.90;;;;;;5093531;28;19920;-60
2022/03/18 04:28:58;;;;;;;;;;;5.90;99.90;;;;;;5092582;28;19985;-60
2022/03/18 04:31:25;;;;;;;;;;;5.90;99.90;;;;;;5084524;28;20400;-61
2022/03/18 04:33:52;;;;;;;;;;;6.00;99.90;;;;;;5086040;28;20034;-60
2022/03/18 04:36:19;;;;;;;;;;;6.10;99.90;;;;;;5072711;28;19920;-60
2022/03/18 04:38:46;;;;;;;;;;;6.10;99.90;;;;;;5088258;28;19920;-61
2022/03/18 04:41:12;;;;;;;;;;;6.10;99.90;;;;;;5080589;28;20372;-60
2022/03/18 04:43:40;;;;;;;;;;;6.10;99.90;;;;;;5082888;28;19975;-60
2022/03/18 04:46:07;;;;;;;;;;;6.10;99.90;;;;;;5083752;28;20192;-60
2022/03/18 04:48:34;;;;;;;;;;;6.10;99.90;;;;;;5079994;28;19926;-60
2022/03/18 04:51:00;;;;;;;;;;;6.10;99.90;;;;;;5080366;28;19930;-61
2022/03/18 04:53:27;;;;;;;;;;;6.00;99.90;;;;;;5106063;22;19923;-61
2022/03/18 04:55:54;;;;;;;;;;;6.00;99.90;;;;;;5094264;28;19920;-61
2022/03/18 04:58:21;;;;;;;;;;;5.90;99.90;;;;;;5108926;28;19977;-61
2022/03/18 05:00:48;;;;;;;;;;;5.90;99.90;;;;;;5112158;28;20402;-61
2022/03/18 05:03:14;;;;;;;;;;;5.90;99.90;;;;;;5102247;28;20003;-61
2022/03/18 05:05:42;;;;;;;;;;;5.80;99.90;;;;;;5088557;28;19924;-62
2022/03/18 05:08:08;;;;;;;;;;;5.70;99.90;;;;;;5091628;28;19926;-61
2022/03/18 05:10:36;;;;;;;;;;;5.60;99.90;;;;;;5079927;28;20019;-60
2022/03/18 05:13:03;;;;;;;;;;;5.50;99.90;;;;;;5090849;28;19920;-62
2022/03/18 05:15:32;;;;;;;;;;;5.50;99.90;;;;;;5088309;28;19924;-62
2022/03/18 05:17:58;;;;;;;;;;;5.50;99.90;;;;;;5065933;28;19978;-62
2022/03/18 05:20:25;;;;;;;;;;;5.50;99.90;;;;;;5092409;28;19920;-62
2022/03/18 05:22:52;;;;;;;;;;;5.50;99.90;;;;;;5091863;28;20326;-63
2022/03/18 05:25:21;;;;;;;;;;;5.60;99.90;;;;;;5083267;28;19920;-62
2022/03/18 05:27:49;;;;;;;;;;;5.70;99.90;;;;;;5092092;28;19927;-61
2022/03/18 05:30:16;;;;;;;;;;;5.70;99.90;;;;;;5092215;28;19951;-60
2022/03/18 05:32:43;;;;;;;;;;;5.80;99.90;;;;;;5083327;28;19951;-62
2022/03/18 05:35:10;;;;;;;;;;;5.80;99.90;;;;;;5073011;28;19920;-63
2022/03/18 05:37:38;;;;;;;;;;;5.80;99.90;;;;;;5090545;28;19920;-62
2022/03/18 05:40:06;;;;;;;;;;;5.80;99.90;;;;;;5091178;28;19927;-63
2022/03/18 05:42:32;;;;;;;;;;;5.70;99.90;;;;;;5090221;28;19919;-63
2022/03/18 05:45:00;;;;;;;;;;;5.70;99.90;;;;;;5090828;28;20039;-63
2022/03/18 05:47:28;;;;;;;;;;;5.70;99.90;;;;;;5092369;28;19924;-63
2022/03/18 05:49:56;;;;;;;;;;;5.60;99.90;;;;;;5097036;28;19920;-63
2022/03/18 05:52:24;;;;;;;;;;;5.70;99.90;;;;;;5095470;28;19924;-62
2022/03/18 05:54:50;;;;;;;;;;;5.80;99.90;;;;;;5090982;28;20454;-63
2022/03/18 05:57:17;;;;;;;;;;;5.90;99.90;;;;;;5090478;28;19965;-63
2022/03/18 05:59:44;;;;;;;;;;;5.90;99.90;;;;;;5094381;28;19931;-63
2022/03/18 06:02:11;;;;;;;;;;;6.00;99.90;;;;;;5091014;28;19969;-63
2022/03/18 06:04:38;;;;;;;;;;;6.00;99.90;;;;;;5090734;28;19924;-63
2022/03/18 06:07:06;;;;;;;;;;;6.00;99.90;;;;;;5089878;28;19936;-62
2022/03/18 06:12:18;;;;;;;;;;;6.10;99.90;;;;;;5071667;28;19924;-62
2022/03/18 06:14:45;;;;;;;;;;;6.20;99.90;;;;;;5075457;28;20015;-63
2022/03/18 06:17:11;;;;;;;;;;;6.20;99.90;;;;;;5084229;28;19920;-63
2022/03/18 06:19:38;;;;;;;;;;;6.10;99.90;;;;;;5091247;28;19973;-63
2022/03/18 06:22:06;;;;;;;;;;;6.20;99.90;;;;;;5095822;28;19924;-63
2022/03/18 06:24:33;;;;;;;;;;;6.30;99.90;;;;;;5092901;28;20303;-63
2022/03/18 06:27:01;;;;;;;;;;;6.30;99.90;;;;;;5087124;28;19959;-62
2022/03/18 06:29:29;;;;;;;;;;;6.40;99.90;;;;;;5095737;28;19927;-63
2022/03/18 06:31:56;;;;;;;;;;;6.50;99.90;;;;;;5095421;28;19963;-63
2022/03/18 06:34:24;;;;;;;;;;;6.60;99.90;;;;;;5089308;28;20289;-63
2022/03/18 06:36:52;;;;;;;;;;;6.60;99.90;;;;;;5087043;28;19959;-63
2022/03/18 06:39:20;;;;;;;;;;;6.60;99.90;;;;;;5094861;28;20333;-63
2022/03/18 06:41:47;;;;;;;;;;;6.60;99.90;;;;;;5095525;28;19920;-61
2022/03/18 06:44:14;;;;;;;;;;;6.70;99.90;;;;;;5088199;28;19928;-63
2022/03/18 06:46:41;;;;;;;;;;;6.70;99.90;;;;;;5073501;28;19955;-63
2022/03/18 06:49:08;;;;;;;;;;;6.80;99.90;;;;;;5094987;28;19920;-63
2022/03/18 06:51:35;;;;;;;;;;;6.90;99.90;;;;;;5090607;28;19927;-63
2022/03/18 06:54:02;;;;;;;;;;;6.90;99.90;;;;;;5086599;28;19962;-61
2022/03/18 06:56:30;;;;;;;;;;;6.90;99.90;;;;;;5095398;28;19920;-63
2022/03/18 06:58:57;;;;;;;;;;;7.00;99.90;;;;;;5094646;28;19927;-63
2022/03/18 07:01:24;;;;;;;;;;;7.00;99.90;;;;;;5089319;28;19927;-63
2022/03/18 07:03:51;;;;;;;;;;;7.00;99.90;;;;;;5086562;28;19920;-63
2022/03/18 07:06:18;;;;;;;;;;;7.10;99.90;;;;;;5095255;28;20383;-63
2022/03/18 07:08:45;;;;;;;;;;;7.10;99.90;;;;;;5092376;28;20082;-63
2022/03/18 07:11:13;;;;;;;;;;;7.10;99.90;;;;;;5086517;28;19927;-63
2022/03/18 07:13:42;;;;;;;;;;;7.10;99.90;;;;;;5094864;28;19924;-63
2022/03/18 07:18:55;;;;;;;;;;;7.20;99.90;;;;;;5087435;28;19966;-63
2022/03/18 07:21:21;;;;;;;;;;;7.20;99.90;;;;;;5086061;28;19927;-62
2022/03/18 07:23:48;;;;;;;;;;;7.20;99.90;;;;;;5094040;28;19934;-63
2022/03/18 07:26:15;;;;;;;;;;;7.20;99.90;;;;;;5094835;28;20334;-63
2022/03/18 07:28:43;;;;;;;;;;;7.20;99.90;;;;;;5093778;28;19924;-62
2022/03/18 07:31:09;;;;;;;;;;;7.20;99.90;;;;;;5085576;28;19965;-63
2022/03/18 07:33:36;;;;;;;;;;;7.20;99.90;;;;;;5094454;28;20435;-62
2022/03/18 07:36:05;;;;;;;;;;;7.30;99.90;;;;;;5094615;28;19920;-63
2022/03/18 07:38:32;;;;;;;;;;;7.30;99.90;;;;;;5084315;28;20018;-62
2022/03/18 07:40:58;;;;;;;;;;;7.40;99.90;;;;;;5092621;28;19920;-62
2022/03/18 07:43:25;;;;;;;;;;;7.40;99.90;;;;;;5094412;28;20015;-62
2022/03/18 07:45:52;;;;;;;;;;;7.40;99.90;;;;;;5087715;28;19920;-63
2022/03/18 07:48:20;;;;;;;;;;;7.40;99.90;;;;;;5087193;28;19924;-63
2022/03/18 07:50:47;;;;;;;;;;;7.50;99.90;;;;;;5075854;28;19919;-63
2022/03/18 07:53:14;;;;;;;;;;;7.50;99.90;;;;;;5093888;28;19920;-62
2022/03/18 07:55:41;;;;;;;;;;;7.50;99.90;;;;;;5082908;28;19930;-63
2022/03/18 07:58:08;;;;;;;;;;;7.60;99.90;;;;;;5093629;28;19927;-63
2022/03/18 08:00:35;;;;;;;;;;;7.60;99.90;;;;;;5093747;28;19924;-62
2022/03/18 08:03:02;;;;;;;;;;;7.70;99.90;;;;;;5083938;28;19920;-63
2022/03/18 08:05:29;;;;;;;;;;;7.70;99.90;;;;;;5088479;28;19924;-62
2022/03/18 08:07:57;;;;;;;;;;;7.80;99.90;;;;;;5094099;28;19919;-63
2022/03/18 08:10:24;;;;;;;;;;;7.90;99.90;;;;;;5086384;28;19920;-60
2022/03/18 08:12:51;;;;;;;;;;;8.10;99.90;;;;;;5085157;28;19924;-61
2022/03/18 08:15:19;;;;;;;;;;;8.20;99.90;;;;;;5093672;28;19924;-61
2022/03/18 08:17:46;;;;;;;;;;;8.30;99.90;;;;;;5088740;28;19926;-60
2022/03/18 08:20:13;;;;;;;;;;;8.50;99.90;;;;;;5084870;28;20384;-60
2022/03/18 08:22:40;;;;;;;;;;;8.70;99.90;;;;;;5093478;28;20019;-63
2022/03/18 08:25:08;;;;;;;;;;;8.90;99.90;;;;;;5093289;28;19927;-61
2022/03/18 08:27:36;;;;;;;;;;;9.00;99.90;;;;;;5087172;28;19924;-62
2022/03/18 08:30:04;;;;;;;;;;;9.10;99.90;;;;;;5083702;28;19924;-61
2022/03/18 08:32:30;;;;;;;;;;;9.10;99.90;;;;;;5093430;28;20023;-63
2022/03/18 08:34:57;;;;;;;;;;;9.10;99.90;;;;;;5092603;28;19927;-60
2022/03/18 08:40:11;;;;;;;;;;;9.30;99.90;;;;;;5084613;28;19947;-63
2022/03/18 08:42:38;;;;;;;;;;;9.40;99.90;;;;;;5093590;28;20326;-61
2022/03/18 08:45:05;;;;;;;;;;;9.60;99.90;;;;;;5093092;28;19920;-63
2022/03/18 08:47:32;;;;;;;;;;;9.70;99.90;;;;;;5082444;28;19920;-63
2022/03/18 08:49:59;;;;;;;;;;;9.80;99.90;;;;;;5091066;28;19976;-62
2022/03/18 08:52:25;;;;;;;;;;;9.70;99.90;;;;;;5092918;28;20014;-63
2022/03/18 08:54:52;;;;;;;;;;;9.70;99.90;;;;;;5092402;28;19956;-61
2022/03/18 08:57:19;;;;;;;;;;;9.80;99.90;;;;;;5081442;28;19974;-63
2022/03/18 08:59:46;;;;;;;;;;;10.00;99.90;;;;;;5089426;28;19920;-63
2022/03/18 09:02:13;;;;;;;;;;;10.30;99.90;;;;;;5092598;28;20010;-63
2022/03/18 09:04:40;;;;;;;;;;;10.40;99.90;;;;;;5086749;28;19920;-61
2022/03/18 09:07:11;;;;;;;;;;;10.70;99.90;;;;;;5084390;28;20010;-63
2022/03/18 09:09:38;;;;;;;;;;;10.70;99.90;;;;;;5092363;28;19927;-63
2022/03/18 09:12:05;;;;;;;;;;;10.80;99.90;;;;;;5092610;28;19974;-63
2022/03/18 09:14:32;;;;;;;;;;;10.90;99.90;;;;;;5086540;28;20018;-63
2022/03/18 09:16:58;;;;;;;;;;;11.00;99.90;;;;;;5084559;28;19920;-62
2022/03/18 09:19:25;;;;;;;;;;;11.10;99.90;;;;;;5091979;28;19924;-63
2022/03/18 09:21:52;;;;;;;;;;;11.20;99.90;;;;;;5090926;28;19982;-62
2022/03/18 09:24:19;;;;;;;;;;;11.30;99.90;;;;;;5083835;28;19919;-63
2022/03/18 09:26:46;;;;;;;;;;;11.20;99.90;;;;;;5092224;28;20295;-62
2022/03/18 09:29:13;;;;;;;;;;;11.20;99.90;;;;;;5073679;28;20363;-63
2022/03/18 09:31:40;;;;;;;;;;;11.10;99.90;;;;;;5089572;28;20343;-63
2022/03/18 09:34:07;;;;;;;;;;;11.30;99.90;;;;;;5083508;28;19931;-62
2022/03/18 09:36:33;;;;;;;;;;;11.30;99.90;;;;;;5092099;28;20322;-63
2022/03/18 09:39:00;;;;;;;;;;;11.20;99.90;;;;;;5092144;28;19920;-62
2022/03/18 09:41:29;;;;;;;;;;;11.10;99.90;;;;;;5088506;28;20388;-62
2022/03/18 09:43:56;;;;;;;;;;;11.00;99.90;;;;;;5083593;28;20400;-62
2022/03/18 09:46:23;;;;;;;;;;;11.00;99.90;;;;;;5091700;28;19927;-63
2022/03/18 09:48:59;;;;;;;;;;;11.00;99.90;;;;;;5075046;28;19920;-62
2022/03/18 09:51:27;;;;;;;;;;;11.10;99.90;;;;;;5082965;28;19924;-62
2022/03/18 09:54:29;;;;;;;;;;;11.10;99.90;;;;;;5071499;28;19950;-62
2022/03/18 09:56:56;;;;;;;;;;;11.10;99.90;;;;;;5071682;28;19943;-62
2022/03/18 09:59:24;;;;;;;;;;;11.20;99.90;;;;;;5077308;28;20304;-63
2022/03/18 10:02:10;;;;;;;;;;;11.20;99.90;;;;;;5083557;28;20221;-62
2022/03/18 10:05:16;;;;;;;;;;;11.20;99.90;;;;;;5091669;28;19920;-62
2022/03/18 10:07:52;;;;;;;;;;;11.10;99.90;;;;;;5059714;28;19920;-62
2022/03/18 10:10:23;;;;;;;;;;;11.00;99.90;;;;;;5079592;28;19924;-62
2022/03/18 10:12:51;;;;;;;;;;;10.90;99.90;;;;;;5071526;28;19962;-62
2022/03/18 10:15:20;;;;;;;;;;;10.90;99.90;;;;;;5091949;28;19920;-62
2022/03/18 10:17:47;;;;;;;;;;;10.90;99.90;;;;;;5089374;28;19923;-62
2022/03/18 10:20:33;;;;;;;;;;;10.80;99.90;;;;;;5083929;28;19920;-62
2022/03/18 10:23:15;;;;;;;;;;;10.80;99.90;;;;;;5092065;28;19924;-62
2022/03/18 10:25:51;;;;;;;;;;;10.80;99.90;;;;;;5091062;28;20424;-62
2022/03/18 10:28:32;;;;;;;;;;;10.80;99.90;;;;;;5079388;28;20384;-61
2022/03/18 10:31:16;;;;;;;;;;;10.80;99.90;;;;;;5071071;28;19927;-61
2022/03/18 10:39:38;;;;;;;;;;;10.30;99.90;;;;;;5071272;28;19970;-61
2022/03/18 10:42:14;;;;;;;;;;;10.20;99.90;;;;;;5071147;28;19946;-61
2022/03/18 10:44:41;;;;;;;;;;;10.20;99.90;;;;;;5083190;28;19920;-62
2022/03/18 10:47:08;;;;;;;;;;;10.10;99.90;;;;;;5091264;28;19920;-62
2022/03/18 10:49:38;;;;;;;;;;;10.10;99.90;;;;;;5091234;28;20276;-62
2022/03/18 10:52:10;;;;;;;;;;;10.10;99.90;;;;;;5088607;28;20014;-62
2022/03/18 10:58:36;;;;;;;;;;;10.10;99.90;;;;;;5091156;28;19915;-59
2022/03/18 11:01:03;;;;;;;;;;;10.20;99.90;;;;;;5095296;28;19920;-61
2022/03/18 11:03:31;;;;;;;;;;;10.30;99.90;;;;;;5116493;27;19945;-61
2022/03/18 11:06:02;;;;;;;;;;;10.40;99.90;;;;;;5117093;27;19927;-61
2022/03/18 11:08:35;;;;;;;;;;;10.50;99.90;;;;;;5113848;28;19975;-62
2022/03/18 11:11:18;;;;;;;;;;;10.50;99.90;;;;;;5121164;27;20014;-59
2022/03/18 11:13:54;;;;;;;;;;;10.70;99.90;;;;;;5135792;27;19927;-60
2022/03/18 11:16:25;;;;;;;;;;;10.80;99.90;;;;;;5135545;27;19923;-60
2022/03/18 11:18:52;;;;;;;;;;;10.90;99.90;;;;;;5124138;27;19920;-59
2022/03/18 11:21:21;;;;;;;;;;;10.90;99.90;;;;;;5135803;27;19920;-61
2022/03/18 11:23:49;;;;;;;;;;;11.00;99.90;;;;;;5135579;27;19920;-61
2022/03/18 11:26:17;;;;;;;;;;;11.10;99.90;;;;;;5131904;27;20422;-61
2022/03/18 11:28:45;;;;;;;;;;;11.30;99.90;;;;;;5126458;27;20460;-61
2022/03/18 11:31:18;;;;;;;;;;;11.50;99.90;;;;;;5135523;27;19919;-61
2022/03/18 11:34:05;;;;;;;;;;;11.60;99.90;;;;;;5135442;27;19948;-61
2022/03/18 11:36:33;;;;;;;;;;;11.60;99.90;;;;;;5123506;27;19920;-61
2022/03/18 11:39:02;;;;;;;;;;;11.70;99.90;;;;;;5133847;27;19970;-61
2022/03/18 11:41:45;;;;;;;;;;;11.80;99.90;;;;;;5135107;27;19919;-60
2022/03/18 11:44:35;;;;;;;;;;;11.90;99.90;;;;;;5129850;27;19919;-61
2022/03/18 11:47:20;;;;;;;;;;;12.10;99.90;;;;;;5126584;27;19942;-61
2022/03/18 11:49:54;;;;;;;;;;;12.30;99.90;;;;;;5134982;27;19927;-61
2022/03/18 11:52:21;;;;;;;;;;;12.10;99.90;;;;;;5125136;27;19928;-61
2022/03/18 11:54:55;;;;;;;;;;;12.10;99.90;;;;;;5120176;27;20376;-61
2022/03/18 11:57:33;;;;;;;;;;;12.20;99.90;;;;;;5135211;27;20314;-61
2022/03/18 12:00:05;;;;;;;;;;;12.30;99.90;;;;;;5134702;27;19978;-61
2022/03/18 12:02:36;;;;;;;;;;;12.30;99.90;;;;;;5119775;27;20018;-61
2022/03/18 12:05:04;;;;;;;;;;;12.30;99.90;;;;;;5126188;27;20013;-61
2022/03/18 12:07:47;;;;;;;;;;;12.10;99.90;;;;;;5134619;27;19926;-61
2022/03/18 12:10:15;;;;;;;;;;;12.00;99.90;;;;;;5134345;27;20303;-61
2022/03/18 12:12:42;;;;;;;;;;;11.80;99.90;;;;;;5118536;27;20341;-60
2022/03/18 12:15:10;;;;;;;;;;;11.70;99.90;;;;;;5122445;27;20453;-61
2022/03/18 12:17:42;;;;;;;;;;;11.60;99.90;;;;;;5114255;28;19972;-61
2022/03/18 12:20:10;;;;;;;;;;;11.50;99.90;;;;;;5115257;27;19926;-61
2022/03/18 12:22:37;;;;;;;;;;;11.80;99.90;;;;;;5125861;27;19931;-61
2022/03/18 12:25:05;;;;;;;;;;;11.90;99.90;;;;;;5134270;27;19923;-61
2022/03/18 12:27:36;;;;;;;;;;;11.90;99.90;;;;;;5134352;27;20021;-61
2022/03/18 12:30:04;;;;;;;;;;;11.80;99.90;;;;;;5121101;27;20286;-61
2022/03/18 12:32:33;;;;;;;;;;;11.60;99.90;;;;;;5129037;27;19942;-61
2022/03/18 12:35:03;;;;;;;;;;;11.50;99.90;;;;;;5134061;27;19919;-61
2022/03/18 12:37:31;;;;;;;;;;;11.50;99.90;;;;;;5128533;27;19975;-60
2022/03/18 12:40:03;;;;;;;;;;;11.40;99.90;;;;;;5125423;27;19942;-61
2022/03/18 12:42:30;;;;;;;;;;;11.40;99.90;;;;;;5134187;27;20010;-60
2022/03/18 12:45:00;;;;;;;;;;;11.40;99.90;;;;;;5133980;27;19930;-61
2022/03/18 12:47:30;;;;;;;;;;;11.30;99.90;;;;;;5124173;27;19923;-61
2022/03/18 12:49:56;;;;;;;;;;;11.30;99.90;;;;;;5125099;27;20241;-61
2022/03/18 12:52:23;;;;;;;;;;;11.30;99.90;;;;;;5134254;27;20358;-61
2022/03/18 12:55:05;;;;;;;;;;;11.40;99.90;;;;;;5132803;27;20375;-61
2022/03/18 12:57:33;;;;;;;;;;;11.50;99.90;;;;;;5116464;27;20391;-61
2022/03/18 13:00:00;;;;;;;;;;;11.50;99.90;;;;;;5132324;27;19919;-61
2022/03/18 13:02:48;;;;;;;;;;;11.40;99.90;;;;;;5129619;27;19919;-61
2022/03/18 13:05:16;;;;;;;;;;;11.50;99.90;;;;;;5124989;27;19954;-60
2022/03/18 13:07:43;;;;;;;;;;;11.40;99.90;;;;;;5133482;27;20345;-61
2022/03/18 13:10:12;;;;;;;;;;;11.60;99.90;;;;;;5133790;27;19926;-61
2022/03/18 13:12:39;;;;;;;;;;;11.80;99.90;;;;;;5120712;27;20388;-61
2022/03/18 13:15:15;;;;;;;;;;;11.70;99.90;;;;;;5119717;27;19923;-61
2022/03/18 13:17:42;;;;;;;;;;;11.70;99.90;;;;;;5129430;27;20425;-61
2022/03/18 13:20:26;;;;;;;;;;;11.80;99.90;;;;;;5128111;27;20428;-61
2022/03/18 13:22:54;;;;;;;;;;;11.70;99.90;;;;;;5112261;27;19919;-61
2022/03/18 13:25:22;;;;;;;;;;;11.50;99.90;;;;;;5126270;27;19919;-61
2022/03/18 13:27:49;;;;;;;;;;;11.50;99.90;;;;;;5117007;27;19920;-61
2022/03/18 13:33:05;;;;;;;;;;;11.30;99.90;;;;;;5117101;27;19919;-60
2022/03/18 13:35:40;;;;;;;;;;;11.30;99.90;;;;;;5112341;28;19919;-61
2022/03/18 13:38:09;;;;;;;;;;;11.10;99.90;;;;;;5110007;28;19930;-61
2022/03/18 13:40:39;;;;;;;;;;;11.00;99.90;;;;;;5111449;28;19935;-60
2022/03/18 13:43:07;;;;;;;;;;;10.90;99.90;;;;;;5117261;27;19984;-60
2022/03/18 13:45:38;;;;;;;;;;;10.80;99.90;;;;;;5112241;28;20602;-60
2022/03/18 13:48:05;;;;;;;;;;;10.80;99.90;;;;;;5112013;28;19930;-61
2022/03/18 13:50:48;;;;;;;;;;;10.80;99.90;;;;;;5116622;27;19919;-61
2022/03/18 13:53:18;;;;;;;;;;;10.80;99.90;;;;;;5091813;28;20023;-61
2022/03/18 13:55:46;;;;;;;;;;;10.80;99.90;;;;;;5092111;28;19923;-61
2022/03/18 13:58:23;;;;;;;;;;;10.80;99.90;;;;;;5113289;27;20023;-61
2022/03/18 14:00:50;;;;;;;;;;;10.80;99.90;;;;;;5129844;27;19920;-61
2022/03/18 14:03:17;;;;;;;;;;;11.00;99.90;;;;;;5132655;27;19988;-61
2022/03/18 14:05:46;;;;;;;;;;;11.10;99.90;;;;;;5123506;28;19947;-61
2022/03/18 14:08:28;;;;;;;;;;;11.20;99.90;;;;;;5104773;28;19927;-61
2022/03/18 14:11:00;;;;;;;;;;;11.10;99.90;;;;;;5108279;28;19927;-61
2022/03/18 14:13:28;;;;;;;;;;;11.10;99.90;;;;;;5109245;28;19923;-61
2022/03/18 14:15:55;;;;;;;;;;;11.10;99.90;;;;;;5108183;28;19930;-62
2022/03/18 14:18:22;;;;;;;;;;;11.20;99.90;;;;;;5109412;28;20281;-61
2022/03/18 14:20:52;;;;;;;;;;;11.30;99.90;;;;;;5109589;28;19919;-61
2022/03/18 14:23:28;;;;;;;;;;;11.50;99.90;;;;;;5108617;28;19923;-62
2022/03/18 14:25:56;;;;;;;;;;;11.60;99.90;;;;;;5110805;28;19923;-61
2022/03/18 14:28:29;;;;;;;;;;;11.70;99.90;;;;;;5109313;28;20439;-62
2022/03/18 14:30:56;;;;;;;;;;;11.70;99.90;;;;;;5109521;28;19931;-61
2022/03/18 14:33:24;;;;;;;;;;;11.60;99.90;;;;;;5109238;28;19931;-61
2022/03/18 14:35:52;;;;;;;;;;;11.50;99.90;;;;;;5112679;28;20380;-61
2022/03/18 14:38:19;;;;;;;;;;;11.30;99.90;;;;;;5107849;28;19963;-61
2022/03/18 14:40:46;;;;;;;;;;;11.20;99.90;;;;;;5107308;28;19920;-61
2022/03/18 14:43:13;;;;;;;;;;;11.10;99.90;;;;;;5111125;28;19919;-62
2022/03/18 14:45:40;;;;;;;;;;;11.00;99.90;;;;;;5115304;28;19949;-61
2022/03/18 14:48:07;;;;;;;;;;;10.90;99.90;;;;;;5111413;28;20015;-61
2022/03/18 14:50:38;;;;;;;;;;;10.90;99.90;;;;;;5114254;28;19998;-61
2022/03/18 14:53:09;;;;;;;;;;;10.90;99.90;;;;;;5107528;28;20378;-61
2022/03/18 14:58:22;;;;;;;;;;;10.90;99.90;;;;;;5111185;28;19920;-61
2022/03/18 15:00:50;;;;;;;;;;;11.00;99.90;;;;;;5113689;28;19920;-61
2022/03/18 15:03:17;;;;;;;;;;;11.00;99.90;;;;;;5110346;27;19920;-61